createdAt,value
2022-12-23T00:02:05.169Z,-3.85
2022-12-23T00:04:34.828Z,-3.91
2022-12-23T00:07:04.352Z,-3.93
2022-12-23T00:09:34.163Z,-3.83
2022-12-23T00:12:21.010Z,-3.82
2022-12-23T00:15:11.477Z,-3.86
2022-12-23T00:17:45.424Z,-3.87
2022-12-23T00:20:17.325Z,-3.84
2022-12-23T00:23:04.132Z,-3.88
2022-12-23T00:25:44.974Z,-3.87
2022-12-23T00:28:16.711Z,-3.85
2022-12-23T00:30:53.988Z,-3.86
2022-12-23T00:33:26.562Z,-3.87
2022-12-23T00:35:56.463Z,-3.83
2022-12-23T00:38:40.418Z,-3.84
2022-12-23T00:41:31.193Z,-3.84
2022-12-23T00:44:01.050Z,-3.82
2022-12-23T00:46:32.073Z,-3.77
2022-12-23T00:50:54.260Z,-3.75
2022-12-23T00:53:24.573Z,-3.72
2022-12-23T00:55:54.055Z,-3.70
2022-12-23T00:58:24.105Z,-3.69
2022-12-23T01:01:13.204Z,-3.65
2022-12-23T01:04:00.080Z,-3.67
2022-12-23T01:06:30.869Z,-3.67
2022-12-23T01:09:00.280Z,-3.68
2022-12-23T01:11:29.634Z,-3.70
2022-12-23T01:14:00.201Z,-3.69
2022-12-23T01:16:29.621Z,-3.70
2022-12-23T01:18:59.118Z,-3.70
2022-12-23T01:21:29.976Z,-3.64
2022-12-23T01:23:59.332Z,-3.64
2022-12-23T01:26:29.117Z,-3.65
2022-12-23T01:29:00.039Z,-3.61
2022-12-23T01:31:30.634Z,-3.63
2022-12-23T01:33:59.982Z,-3.65
2022-12-23T01:36:30.894Z,-3.67
2022-12-23T01:39:00.286Z,-3.67
2022-12-23T01:41:50.402Z,-3.69
2022-12-23T01:45:00.761Z,-3.74
2022-12-23T01:47:37.326Z,-3.69
2022-12-23T01:50:15.898Z,-3.71
2022-12-23T01:52:51.043Z,-3.78
2022-12-23T01:55:24.961Z,-3.76
2022-12-23T01:57:58.070Z,-3.74
2022-12-23T02:00:44.858Z,-3.71
2022-12-23T02:03:31.934Z,-3.73
2022-12-23T02:06:22.309Z,-3.75
2022-12-23T02:09:10.368Z,-3.72
2022-12-23T02:12:25.149Z,-3.72
2022-12-23T02:15:34.914Z,-3.67
2022-12-23T02:18:35.863Z,-3.72
2022-12-23T02:21:38.325Z,-3.72
2022-12-23T02:24:49.395Z,-3.67
2022-12-23T02:27:27.635Z,-3.65
2022-12-23T02:30:45.723Z,-3.58
2022-12-23T02:33:38.865Z,-3.59
2022-12-23T02:36:36.306Z,-3.61
2022-12-23T02:39:13.341Z,-3.63
2022-12-23T02:41:55.352Z,-3.63
2022-12-23T02:44:33.797Z,-3.60
2022-12-23T02:47:12.313Z,-3.57
2022-12-23T02:49:47.777Z,-3.58
2022-12-23T02:52:20.238Z,-3.60
2022-12-23T02:54:53.994Z,-3.59
2022-12-23T02:57:28.999Z,-3.57
2022-12-23T03:00:00.337Z,-3.53
2022-12-23T03:02:32.985Z,-3.50
2022-12-23T03:05:02.245Z,-3.49
2022-12-23T03:07:36.677Z,-3.47
2022-12-23T03:10:15.592Z,-3.44
2022-12-23T03:12:57.437Z,-3.43
2022-12-23T03:15:39.008Z,-3.43
2022-12-23T03:18:21.408Z,-3.42
2022-12-23T03:20:58.759Z,-3.39
2022-12-23T03:23:33.545Z,-3.38
2022-12-23T03:26:13.511Z,-3.33
2022-12-23T03:28:49.008Z,-3.27
2022-12-23T03:31:25.613Z,-3.26
2022-12-23T03:34:03.547Z,-3.31
2022-12-23T03:36:38.770Z,-3.32
2022-12-23T03:39:14.151Z,-3.27
2022-12-23T03:41:48.718Z,-3.23
2022-12-23T03:44:22.937Z,-3.22
2022-12-23T03:47:00.683Z,-3.20
2022-12-23T03:51:57.091Z,-3.15
2022-12-23T03:54:31.959Z,-3.12
2022-12-23T03:57:07.475Z,-3.11
2022-12-23T03:59:41.158Z,-3.12
2022-12-23T04:02:17.825Z,-3.13
2022-12-23T04:05:10.500Z,-3.15
2022-12-23T04:07:45.013Z,-3.13
2022-12-23T04:10:15.936Z,-3.16
2022-12-23T04:12:46.647Z,-3.19
2022-12-23T04:15:20.045Z,-3.15
2022-12-23T04:17:50.295Z,-3.06
2022-12-23T04:20:20.232Z,-3.07
2022-12-23T04:22:51.490Z,-3.09
2022-12-23T04:25:21.425Z,-3.09
2022-12-23T04:27:50.634Z,-3.13
2022-12-23T04:30:20.080Z,-3.10
2022-12-23T04:32:49.405Z,-3.05
2022-12-23T04:35:18.839Z,-3.04
2022-12-23T04:37:49.664Z,-3.03
2022-12-23T04:40:19.551Z,-3.02
2022-12-23T04:42:48.892Z,-2.99
2022-12-23T04:45:18.446Z,-2.96
2022-12-23T04:47:47.750Z,-2.96
2022-12-23T04:50:18.486Z,-2.96
2022-12-23T04:52:49.315Z,-2.92
2022-12-23T04:55:19.172Z,-2.91
2022-12-23T04:57:48.625Z,-2.92
2022-12-23T05:00:19.666Z,-2.90
2022-12-23T05:02:49.272Z,-2.87
2022-12-23T05:05:19.856Z,-2.81
2022-12-23T05:07:52.441Z,-2.79
2022-12-23T05:10:21.976Z,-2.80
2022-12-23T05:12:51.492Z,-2.82
2022-12-23T05:15:21.001Z,-2.84
2022-12-23T05:17:50.398Z,-2.84
2022-12-23T05:20:20.523Z,-2.88
2022-12-23T05:22:51.319Z,-2.89
2022-12-23T05:25:20.790Z,-2.91
2022-12-23T05:27:50.289Z,-2.94
2022-12-23T05:30:20.036Z,-2.96
2022-12-23T05:32:49.489Z,-2.96
2022-12-23T05:35:18.987Z,-2.96
2022-12-23T05:37:50.060Z,-2.97
2022-12-23T05:40:23.774Z,-2.98
2022-12-23T05:42:56.142Z,-2.96
2022-12-23T05:45:25.708Z,-2.97
2022-12-23T05:47:55.287Z,-3.01
2022-12-23T05:50:24.820Z,-2.94
2022-12-23T05:52:57.886Z,-2.95
2022-12-23T05:55:28.299Z,-2.98
2022-12-23T05:57:57.837Z,-2.99
2022-12-23T06:00:27.529Z,-3.04
2022-12-23T06:02:57.214Z,-3.00
2022-12-23T06:05:26.665Z,-2.98
2022-12-23T06:07:57.418Z,-3.01
2022-12-23T06:10:26.876Z,-3.01
2022-12-23T06:12:56.142Z,-3.00
2022-12-23T06:15:25.672Z,-2.99
2022-12-23T06:17:54.975Z,-2.99
2022-12-23T06:20:24.446Z,-3.03
2022-12-23T06:22:53.729Z,-3.03
2022-12-23T06:25:24.631Z,-2.95
2022-12-23T06:27:53.864Z,-2.90
2022-12-23T06:30:23.698Z,-2.91
2022-12-23T06:32:53.154Z,-2.94
2022-12-23T06:35:22.564Z,-2.95
2022-12-23T06:37:54.823Z,-2.98
2022-12-23T06:40:25.585Z,-3.00
2022-12-23T06:42:54.931Z,-2.95
2022-12-23T06:45:24.477Z,-2.91
2022-12-23T06:47:53.824Z,-2.87
2022-12-23T06:51:51.769Z,-2.79
2022-12-23T06:54:21.247Z,-2.77
2022-12-23T06:56:50.575Z,-2.71
2022-12-23T06:59:19.905Z,-2.62
2022-12-23T07:01:49.563Z,-2.50
2022-12-23T07:04:19.401Z,-2.42
2022-12-23T07:06:50.350Z,-2.28
2022-12-23T07:09:20.134Z,-2.11
2022-12-23T07:11:49.614Z,-1.96
2022-12-23T07:14:19.042Z,-1.86
2022-12-23T07:16:48.515Z,-1.80
2022-12-23T07:19:18.255Z,-1.80
2022-12-23T07:21:47.713Z,-1.76
2022-12-23T07:24:18.743Z,-1.68
2022-12-23T07:26:48.156Z,-1.50
2022-12-23T07:29:17.448Z,-1.29
2022-12-23T07:31:46.909Z,-1.16
2022-12-23T07:34:16.443Z,-1.03
2022-12-23T07:36:45.830Z,-0.82
2022-12-23T07:39:16.883Z,-0.63
2022-12-23T07:41:46.371Z,-0.42
2022-12-23T07:44:16.098Z,-0.28
2022-12-23T07:46:45.620Z,-0.07
2022-12-23T07:49:15.394Z,0.14
2022-12-23T07:51:44.829Z,0.31
2022-12-23T07:54:16.511Z,0.44
2022-12-23T07:56:45.978Z,0.59
2022-12-23T07:59:15.718Z,0.75
2022-12-23T08:01:45.381Z,1.00
2022-12-23T08:04:14.760Z,1.29
2022-12-23T08:06:44.173Z,1.57
2022-12-23T08:09:20.994Z,1.85
2022-12-23T08:11:50.415Z,2.20
2022-12-23T08:14:19.675Z,2.56
2022-12-23T08:16:50.425Z,2.90
2022-12-23T08:19:19.832Z,3.18
2022-12-23T08:21:49.116Z,3.45
2022-12-23T08:24:19.784Z,3.73
2022-12-23T08:26:49.099Z,4.01
2022-12-23T08:29:18.456Z,4.38
2022-12-23T08:31:47.864Z,4.63
2022-12-23T08:34:17.390Z,4.75
2022-12-23T08:36:46.634Z,4.85
2022-12-23T08:39:16.073Z,4.88
2022-12-23T08:41:49.813Z,4.89
2022-12-23T08:44:19.511Z,4.94
2022-12-23T08:46:48.997Z,4.93
2022-12-23T08:49:18.440Z,4.99
2022-12-23T08:51:47.970Z,5.00
2022-12-23T08:54:17.627Z,4.90
2022-12-23T08:56:48.539Z,4.70
2022-12-23T08:59:20.112Z,4.55
2022-12-23T09:01:50.349Z,4.47
2022-12-23T09:04:20.038Z,4.40
2022-12-23T09:06:49.472Z,4.33
2022-12-23T09:09:18.934Z,4.34
2022-12-23T09:11:49.615Z,4.40
2022-12-23T09:14:19.111Z,4.38
2022-12-23T09:16:50.550Z,4.34
2022-12-23T09:19:20.607Z,4.37
2022-12-23T09:21:50.047Z,4.40
2022-12-23T09:24:19.351Z,4.42
2022-12-23T09:26:50.081Z,4.51
2022-12-23T09:29:19.615Z,4.53
2022-12-23T09:34:32.304Z,4.59
2022-12-23T09:37:01.587Z,4.65
2022-12-23T09:39:31.276Z,4.72
2022-12-23T09:42:09.274Z,4.82
2022-12-23T09:52:00.506Z,5.31
2022-12-23T09:54:35.192Z,5.25
2022-12-23T09:57:10.049Z,5.32
2022-12-23T10:00:06.023Z,5.28
2022-12-23T10:02:52.414Z,5.20
2022-12-23T10:05:37.263Z,5.25
2022-12-23T10:08:18.029Z,5.30
2022-12-23T10:10:52.804Z,5.34
2022-12-23T10:13:36.687Z,5.35
2022-12-23T10:16:10.520Z,5.37
2022-12-23T10:18:50.112Z,5.40
2022-12-23T10:21:28.449Z,5.43
2022-12-23T10:24:05.203Z,5.45
2022-12-23T10:26:44.679Z,5.52
2022-12-23T10:29:19.911Z,5.62
2022-12-23T10:32:06.160Z,5.72
2022-12-23T10:34:49.250Z,5.76
2022-12-23T10:37:24.401Z,5.80
2022-12-23T10:40:17.701Z,5.83
2022-12-23T10:42:58.557Z,5.92
2022-12-23T10:45:44.658Z,5.96
2022-12-23T10:48:40.642Z,6.03
2022-12-23T10:51:20.051Z,6.06
2022-12-23T10:53:55.296Z,6.00
2022-12-23T10:56:26.652Z,5.96
2022-12-23T10:59:01.560Z,5.97
2022-12-23T11:01:33.876Z,6.01
2022-12-23T11:04:11.023Z,5.99
2022-12-23T11:06:45.817Z,5.96
2022-12-23T11:09:21.422Z,5.97
2022-12-23T11:12:02.906Z,6.03
2022-12-23T11:14:40.300Z,6.05
2022-12-23T11:17:24.258Z,6.06
2022-12-23T11:20:13.178Z,6.08
2022-12-23T11:22:52.127Z,6.06
2022-12-23T11:25:35.737Z,6.09
2022-12-23T11:28:13.981Z,6.05
2022-12-23T11:30:57.217Z,5.97
2022-12-23T11:33:31.169Z,5.90
2022-12-23T11:36:15.255Z,5.87
2022-12-23T11:38:52.882Z,5.90
2022-12-23T11:41:25.708Z,5.88
2022-12-23T11:43:59.771Z,5.89
2022-12-23T11:46:32.429Z,5.89
2022-12-23T11:49:20.902Z,5.90
2022-12-23T11:52:02.450Z,6.00
2022-12-23T11:54:33.181Z,6.05
2022-12-23T11:57:08.010Z,6.04
2022-12-23T11:59:42.427Z,6.13
2022-12-23T12:02:20.467Z,6.08
2022-12-23T12:04:59.507Z,6.01
2022-12-23T12:07:30.216Z,5.94
2022-12-23T12:10:02.894Z,5.92
2022-12-23T12:12:33.385Z,5.90
2022-12-23T12:15:05.055Z,5.90
2022-12-23T12:17:40.351Z,5.86
2022-12-23T12:20:19.826Z,5.80
2022-12-23T12:22:56.414Z,5.82
2022-12-23T12:25:39.841Z,5.86
2022-12-23T12:28:16.656Z,5.92
2022-12-23T12:30:54.666Z,5.99
2022-12-23T12:33:32.205Z,6.01
2022-12-23T12:36:14.824Z,6.02
2022-12-23T12:38:49.322Z,6.02
2022-12-23T12:41:24.769Z,6.04
2022-12-23T12:44:02.498Z,6.05
2022-12-23T12:46:40.116Z,6.15
2022-12-23T12:52:00.227Z,6.21
2022-12-23T12:54:37.694Z,6.37
2022-12-23T12:57:07.663Z,6.41
2022-12-23T12:59:39.900Z,6.44
2022-12-23T13:02:46.353Z,6.44
2022-12-23T13:05:34.800Z,6.28
2022-12-23T13:08:24.018Z,6.10
2022-12-23T13:10:59.075Z,5.93
2022-12-23T13:13:46.686Z,5.79
2022-12-23T13:16:31.185Z,5.74
2022-12-23T13:19:08.147Z,5.71
2022-12-23T13:21:46.700Z,5.76
2022-12-23T13:24:26.748Z,5.90
2022-12-23T13:27:09.803Z,5.96
2022-12-23T13:29:58.697Z,6.06
2022-12-23T13:32:57.138Z,6.07
2022-12-23T13:35:43.735Z,5.99
2022-12-23T13:38:36.521Z,5.92
2022-12-23T13:41:18.453Z,5.89
2022-12-23T13:43:54.565Z,5.90
2022-12-23T13:46:39.262Z,5.85
2022-12-23T13:49:21.184Z,5.85
2022-12-23T13:51:59.426Z,5.84
2022-12-23T13:54:44.868Z,5.85
2022-12-23T13:57:29.562Z,5.84
2022-12-23T14:00:08.569Z,5.82
2022-12-23T14:02:50.421Z,5.78
2022-12-23T14:05:37.359Z,5.73
2022-12-23T14:08:21.330Z,5.70
2022-12-23T14:10:56.434Z,5.72
2022-12-23T14:13:32.157Z,5.74
2022-12-23T14:16:33.680Z,5.67
2022-12-23T14:19:42.732Z,5.59
2022-12-23T14:22:38.770Z,5.52
2022-12-23T14:25:50.629Z,5.43
2022-12-23T14:28:49.261Z,5.36
2022-12-23T14:31:36.797Z,5.28
2022-12-23T14:34:28.541Z,5.20
2022-12-23T14:37:35.624Z,5.11
2022-12-23T14:41:00.691Z,4.99
2022-12-23T14:43:59.698Z,4.92
2022-12-23T14:46:59.943Z,4.82
2022-12-23T14:49:47.547Z,4.74
2022-12-23T14:53:01.786Z,4.65
2022-12-23T14:55:46.642Z,4.54
2022-12-23T14:59:02.798Z,4.44
2022-12-23T15:01:39.040Z,4.32
2022-12-23T15:04:18.605Z,4.28
2022-12-23T15:06:51.374Z,4.22
2022-12-23T15:09:26.974Z,4.18
2022-12-23T15:11:59.550Z,4.14
2022-12-23T15:14:37.941Z,4.14
2022-12-23T15:17:27.586Z,4.15
2022-12-23T15:20:12.745Z,4.12
2022-12-23T15:22:45.344Z,4.10
2022-12-23T15:25:25.503Z,4.05
2022-12-23T15:28:01.615Z,3.98
2022-12-23T15:30:38.567Z,3.95
2022-12-23T15:33:43.284Z,3.93
2022-12-23T15:36:05.721Z,3.93
2022-12-23T15:38:39.738Z,3.93
2022-12-23T15:41:18.932Z,3.94
2022-12-23T15:43:48.847Z,3.92
2022-12-23T15:46:29.266Z,3.88
2022-12-23T15:52:08.082Z,3.89
2022-12-23T15:54:47.422Z,3.87
2022-12-23T15:57:22.650Z,3.83
2022-12-23T15:59:53.122Z,3.81
2022-12-23T16:05:30.941Z,3.78
2022-12-23T16:08:29.764Z,3.76
2022-12-23T16:11:08.514Z,3.74
2022-12-23T16:13:44.759Z,3.69
2022-12-23T16:16:35.844Z,3.66
2022-12-23T16:19:07.029Z,3.70
2022-12-23T16:21:39.222Z,3.69
2022-12-23T16:24:14.283Z,3.66
2022-12-23T16:26:45.634Z,3.63
2022-12-23T16:29:17.282Z,3.63
2022-12-23T16:31:54.298Z,3.64
2022-12-23T16:34:27.756Z,3.57
2022-12-23T16:36:57.704Z,3.50
2022-12-23T16:39:29.303Z,3.44
2022-12-23T16:41:58.991Z,3.42
2022-12-23T16:44:28.790Z,3.43
2022-12-23T16:46:58.548Z,3.39
2022-12-23T16:49:33.356Z,3.34
2022-12-23T16:52:05.508Z,3.20
2022-12-23T16:54:36.933Z,3.10
2022-12-23T16:57:07.058Z,3.04
2022-12-23T16:59:37.462Z,2.93
2022-12-23T17:02:11.485Z,2.89
2022-12-23T17:04:41.469Z,2.79
2022-12-23T17:07:15.244Z,2.72
2022-12-23T17:09:46.621Z,2.60
2022-12-23T17:12:16.643Z,2.54
2022-12-23T17:14:46.688Z,2.59
2022-12-23T17:17:18.528Z,2.42
2022-12-23T17:19:48.452Z,2.34
2022-12-23T17:22:18.931Z,2.24
2022-12-23T17:24:50.609Z,2.13
2022-12-23T17:27:22.240Z,2.05
2022-12-23T17:29:52.133Z,1.95
2022-12-23T17:32:22.268Z,1.92
2022-12-23T17:34:52.325Z,1.86
2022-12-23T17:37:23.538Z,1.78
2022-12-23T17:39:55.363Z,1.70
2022-12-23T17:42:26.375Z,1.67
2022-12-23T17:44:56.462Z,1.56
2022-12-23T17:47:26.449Z,1.44
2022-12-23T17:49:56.263Z,1.40
2022-12-23T17:52:27.204Z,1.30
2022-12-23T17:54:58.607Z,1.22
2022-12-23T17:57:29.901Z,1.14
2022-12-23T17:59:59.792Z,1.09
2022-12-23T18:02:33.242Z,0.98
2022-12-23T18:05:04.069Z,0.90
2022-12-23T18:07:34.162Z,0.86
2022-12-23T18:10:05.702Z,0.76
2022-12-23T18:12:41.374Z,0.71
2022-12-23T18:15:23.021Z,0.66
2022-12-23T18:17:54.882Z,0.62
2022-12-23T18:20:26.464Z,0.49
2022-12-23T18:22:58.639Z,0.44
2022-12-23T18:25:30.361Z,0.44
2022-12-23T18:28:00.332Z,0.42
2022-12-23T18:30:30.336Z,0.33
2022-12-23T18:33:00.273Z,0.34
2022-12-23T18:35:33.320Z,0.36
2022-12-23T18:38:04.315Z,0.36
2022-12-23T18:40:35.703Z,0.34
2022-12-23T18:43:05.872Z,0.24
2022-12-23T18:45:38.192Z,0.19
2022-12-23T18:48:11.153Z,0.16
2022-12-23T18:51:51.931Z,0.12
2022-12-23T18:54:22.272Z,0.14
2022-12-23T18:56:52.162Z,0.10
2022-12-23T18:59:29.806Z,0.01
2022-12-23T19:02:01.206Z,-0.05
2022-12-23T19:04:31.271Z,-0.04
2022-12-23T19:07:02.882Z,-0.05
2022-12-23T19:09:32.723Z,-0.08
2022-12-23T19:12:02.602Z,-0.07
2022-12-23T19:14:32.570Z,-0.06
2022-12-23T19:17:02.535Z,-0.04
2022-12-23T19:19:32.362Z,-0.07
2022-12-23T19:22:03.829Z,-0.14
2022-12-23T19:24:33.704Z,-0.22
2022-12-23T19:27:03.608Z,-0.24
2022-12-23T19:29:33.321Z,-0.24
2022-12-23T19:32:03.269Z,-0.28
2022-12-23T19:34:33.271Z,-0.32
2022-12-23T19:37:04.575Z,-0.33
2022-12-23T19:39:34.796Z,-0.38
2022-12-23T19:42:04.710Z,-0.37
2022-12-23T19:44:34.784Z,-0.36
2022-12-23T19:47:06.041Z,-0.40
2022-12-23T19:49:35.922Z,-0.46
2022-12-23T19:52:07.668Z,-0.58
2022-12-23T19:54:37.606Z,-0.57
2022-12-23T19:57:07.573Z,-0.60
2022-12-23T19:59:37.688Z,-0.68
2022-12-23T20:02:07.779Z,-0.73
2022-12-23T20:04:37.862Z,-0.74
2022-12-23T20:07:09.399Z,-0.75
2022-12-23T20:09:42.503Z,-0.80
2022-12-23T20:12:12.658Z,-0.78
2022-12-23T20:14:43.374Z,-0.80
2022-12-23T20:17:13.369Z,-0.81
2022-12-23T20:19:46.094Z,-0.84
2022-12-23T20:22:17.760Z,-0.87
2022-12-23T20:24:47.620Z,-0.88
2022-12-23T20:27:20.127Z,-0.94
2022-12-23T20:29:52.663Z,-0.91
2022-12-23T20:32:23.622Z,-0.92
2022-12-23T20:34:53.660Z,-0.92
2022-12-23T20:37:24.981Z,-0.97
2022-12-23T20:39:55.284Z,-0.98
2022-12-23T20:42:27.073Z,-0.94
2022-12-23T20:44:56.821Z,-0.99
2022-12-23T20:47:26.700Z,-0.97
2022-12-23T20:49:56.521Z,-0.99
2022-12-23T20:52:27.967Z,-1.04
2022-12-23T20:54:58.061Z,-1.07
2022-12-23T20:57:27.901Z,-1.08
2022-12-23T20:59:57.804Z,-1.07
2022-12-23T21:02:28.557Z,-1.08
2022-12-23T21:04:58.320Z,-1.11
2022-12-23T21:07:29.781Z,-1.10
2022-12-23T21:09:59.682Z,-1.15
2022-12-23T21:12:29.441Z,-1.17
2022-12-23T21:14:59.329Z,-1.11
2022-12-23T21:17:29.942Z,-1.16
2022-12-23T21:20:06.912Z,-1.19
2022-12-23T21:22:39.047Z,-1.18
2022-12-23T21:25:10.342Z,-1.19
2022-12-23T21:27:40.192Z,-1.20
2022-12-23T21:30:13.637Z,-1.22
2022-12-23T21:32:43.541Z,-1.27
2022-12-23T21:35:14.001Z,-1.29
2022-12-23T21:37:45.397Z,-1.28
2022-12-23T21:40:16.561Z,-1.25
2022-12-23T21:42:46.480Z,-1.25
2022-12-23T21:45:16.400Z,-1.25
2022-12-23T21:47:46.322Z,-1.29
2022-12-23T21:51:51.813Z,-1.31
2022-12-23T21:54:21.820Z,-1.31
2022-12-23T21:56:51.706Z,-1.31
2022-12-23T21:59:21.788Z,-1.28
2022-12-23T22:01:51.836Z,-1.24
2022-12-23T22:04:21.879Z,-1.27
2022-12-23T22:06:53.409Z,-1.30
2022-12-23T22:09:23.342Z,-1.31
2022-12-23T22:11:53.188Z,-1.27
2022-12-23T22:14:23.099Z,-1.24
2022-12-23T22:16:52.982Z,-1.19
2022-12-23T22:19:22.901Z,-1.14
2022-12-23T22:21:54.342Z,-1.12
2022-12-23T22:24:24.245Z,-1.13
2022-12-23T22:26:54.107Z,-1.13
2022-12-23T22:29:23.962Z,-1.19
2022-12-23T22:31:54.513Z,-1.23
2022-12-23T22:34:26.040Z,-1.26
2022-12-23T22:36:57.453Z,-1.22
2022-12-23T22:39:27.481Z,-1.29
2022-12-23T22:41:57.320Z,-1.33
2022-12-23T22:44:27.301Z,-1.32
2022-12-23T22:46:57.339Z,-1.27
2022-12-23T22:49:27.664Z,-1.29
2022-12-23T22:51:59.166Z,-1.32
2022-12-23T22:54:29.144Z,-1.32
2022-12-23T22:56:58.959Z,-1.38
2022-12-23T22:59:28.932Z,-1.39
2022-12-23T23:01:58.801Z,-1.41
2022-12-23T23:04:29.079Z,-1.42
2022-12-23T23:07:00.581Z,-1.42
2022-12-23T23:09:30.448Z,-1.39
2022-12-23T23:12:00.405Z,-1.43
2022-12-23T23:14:50.519Z,-1.46
2022-12-23T23:17:20.701Z,-1.46
2022-12-23T23:19:50.681Z,-1.50
2022-12-23T23:22:23.958Z,-1.49
2022-12-23T23:24:54.240Z,-1.50
2022-12-23T23:27:24.282Z,-1.57
2022-12-23T23:29:54.183Z,-1.60
2022-12-23T23:32:26.922Z,-1.60
2022-12-23T23:34:56.741Z,-1.62
2022-12-23T23:37:28.159Z,-1.66
2022-12-23T23:39:58.059Z,-1.65
2022-12-23T23:42:27.845Z,-1.65
2022-12-23T23:44:57.740Z,-1.70
2022-12-23T23:47:27.858Z,-1.73
2022-12-23T23:49:57.719Z,-1.73
2022-12-23T23:52:29.269Z,-1.68
2022-12-23T23:54:59.118Z,-1.64
2022-12-23T23:57:29.127Z,-1.62
2022-12-23T23:59:59.039Z,-1.61
